sensor_id;sensor_type;location;lat;lon;timestamp;P1;durP1;ratioP1;P2;durP2;ratioP2
20669;SDS011;10494;50.868;4.180;2023-09-19T00:00:45;14.25;;;2.72;;
20669;SDS011;10494;50.868;4.180;2023-09-19T00:03:14;9.77;;;2.67;;
20669;SDS011;10494;50.868;4.180;2023-09-19T00:05:40;15.43;;;3.03;;
20669;SDS011;10494;50.868;4.180;2023-09-19T00:08:09;10.50;;;2.80;;
20669;SDS011;10494;50.868;4.180;2023-09-19T00:10:35;10.57;;;2.50;;
20669;SDS011;10494;50.868;4.180;2023-09-19T00:13:01;17.73;;;2.53;;
20669;SDS011;10494;50.868;4.180;2023-09-19T00:15:36;17.40;;;3.75;;
20669;SDS011;10494;50.868;4.180;2023-09-19T00:18:03;9.10;;;2.35;;
20669;SDS011;10494;50.868;4.180;2023-09-19T00:20:32;11.48;;;2.53;;
20669;SDS011;10494;50.868;4.180;2023-09-19T00:23:00;11.73;;;2.58;;
20669;SDS011;10494;50.868;4.180;2023-09-19T00:25:27;11.65;;;2.53;;
20669;SDS011;10494;50.868;4.180;2023-09-19T00:27:54;16.08;;;2.65;;
20669;SDS011;10494;50.868;4.180;2023-09-19T00:30:20;11.55;;;2.70;;
20669;SDS011;10494;50.868;4.180;2023-09-19T00:32:46;13.05;;;2.67;;
20669;SDS011;10494;50.868;4.180;2023-09-19T00:35:15;13.90;;;2.55;;
20669;SDS011;10494;50.868;4.180;2023-09-19T00:37:41;18.63;;;3.45;;
20669;SDS011;10494;50.868;4.180;2023-09-19T00:40:07;15.35;;;3.00;;
20669;SDS011;10494;50.868;4.180;2023-09-19T00:42:38;17.88;;;3.15;;
20669;SDS011;10494;50.868;4.180;2023-09-19T00:45:06;14.43;;;3.28;;
20669;SDS011;10494;50.868;4.180;2023-09-19T00:47:34;13.63;;;3.08;;
20669;SDS011;10494;50.868;4.180;2023-09-19T00:50:00;14.32;;;2.70;;
20669;SDS011;10494;50.868;4.180;2023-09-19T00:52:28;14.63;;;2.85;;
20669;SDS011;10494;50.868;4.180;2023-09-19T00:54:54;13.23;;;3.00;;
20669;SDS011;10494;50.868;4.180;2023-09-19T00:57:19;12.57;;;3.22;;
20669;SDS011;10494;50.868;4.180;2023-09-19T00:59:47;17.50;;;2.40;;
20669;SDS011;10494;50.868;4.180;2023-09-19T01:02:15;14.25;;;3.25;;
20669;SDS011;10494;50.868;4.180;2023-09-19T01:04:41;13.48;;;2.25;;
20669;SDS011;10494;50.868;4.180;2023-09-19T01:07:08;14.43;;;3.00;;
20669;SDS011;10494;50.868;4.180;2023-09-19T01:09:34;11.52;;;2.30;;
20669;SDS011;10494;50.868;4.180;2023-09-19T01:12:01;12.98;;;2.63;;
20669;SDS011;10494;50.868;4.180;2023-09-19T01:14:44;9.98;;;2.42;;
20669;SDS011;10494;50.868;4.180;2023-09-19T01:29:01;16.55;;;2.50;;
20669;SDS011;10494;50.868;4.180;2023-09-19T01:31:54;12.95;;;2.47;;
20669;SDS011;10494;50.868;4.180;2023-09-19T01:34:26;15.32;;;2.72;;
20669;SDS011;10494;50.868;4.180;2023-09-19T01:36:52;14.27;;;2.90;;
20669;SDS011;10494;50.868;4.180;2023-09-19T01:39:17;9.82;;;2.45;;
20669;SDS011;10494;50.868;4.180;2023-09-19T01:47:02;19.20;;;2.75;;
20669;SDS011;10494;50.868;4.180;2023-09-19T01:49:42;15.75;;;2.65;;
20669;SDS011;10494;50.868;4.180;2023-09-19T01:52:16;12.38;;;2.55;;
20669;SDS011;10494;50.868;4.180;2023-09-19T01:54:50;15.00;;;2.75;;
20669;SDS011;10494;50.868;4.180;2023-09-19T01:57:20;18.98;;;3.22;;
20669;SDS011;10494;50.868;4.180;2023-09-19T02:00:05;15.65;;;2.50;;
20669;SDS011;10494;50.868;4.180;2023-09-19T02:02:36;19.63;;;3.25;;
20669;SDS011;10494;50.868;4.180;2023-09-19T02:05:03;16.08;;;3.35;;
20669;SDS011;10494;50.868;4.180;2023-09-19T02:07:30;14.70;;;3.60;;
20669;SDS011;10494;50.868;4.180;2023-09-19T02:09:58;17.35;;;3.33;;
20669;SDS011;10494;50.868;4.180;2023-09-19T02:12:30;25.13;;;3.72;;
20669;SDS011;10494;50.868;4.180;2023-09-19T02:14:56;14.85;;;3.30;;
20669;SDS011;10494;50.868;4.180;2023-09-19T02:17:22;20.58;;;3.42;;
20669;SDS011;10494;50.868;4.180;2023-09-19T02:19:51;18.17;;;3.35;;
20669;SDS011;10494;50.868;4.180;2023-09-19T02:22:17;13.35;;;3.22;;
20669;SDS011;10494;50.868;4.180;2023-09-19T02:24:43;15.85;;;3.13;;
20669;SDS011;10494;50.868;4.180;2023-09-19T02:27:09;15.02;;;2.65;;
20669;SDS011;10494;50.868;4.180;2023-09-19T02:29:37;13.23;;;2.88;;
20669;SDS011;10494;50.868;4.180;2023-09-19T02:32:03;11.65;;;3.15;;
20669;SDS011;10494;50.868;4.180;2023-09-19T02:34:29;12.57;;;2.83;;
20669;SDS011;10494;50.868;4.180;2023-09-19T02:36:54;16.48;;;3.20;;
20669;SDS011;10494;50.868;4.180;2023-09-19T02:39:21;20.73;;;3.97;;
20669;SDS011;10494;50.868;4.180;2023-09-19T02:41:48;16.48;;;3.00;;
20669;SDS011;10494;50.868;4.180;2023-09-19T02:44:14;11.75;;;2.65;;
20669;SDS011;10494;50.868;4.180;2023-09-19T02:46:40;17.23;;;3.17;;
20669;SDS011;10494;50.868;4.180;2023-09-19T02:49:05;14.25;;;3.05;;
20669;SDS011;10494;50.868;4.180;2023-09-19T02:51:31;21.88;;;3.47;;
20669;SDS011;10494;50.868;4.180;2023-09-19T02:53:59;10.73;;;2.45;;
20669;SDS011;10494;50.868;4.180;2023-09-19T02:56:25;11.98;;;2.70;;
20669;SDS011;10494;50.868;4.180;2023-09-19T02:58:50;17.63;;;3.10;;
20669;SDS011;10494;50.868;4.180;2023-09-19T03:01:16;13.13;;;2.80;;
20669;SDS011;10494;50.868;4.180;2023-09-19T03:03:43;12.60;;;3.30;;
20669;SDS011;10494;50.868;4.180;2023-09-19T03:06:10;12.45;;;2.45;;
20669;SDS011;10494;50.868;4.180;2023-09-19T03:08:37;10.40;;;2.58;;
20669;SDS011;10494;50.868;4.180;2023-09-19T03:11:04;12.48;;;2.22;;
20669;SDS011;10494;50.868;4.180;2023-09-19T03:13:31;9.52;;;2.80;;
20669;SDS011;10494;50.868;4.180;2023-09-19T03:15:57;13.88;;;2.72;;
20669;SDS011;10494;50.868;4.180;2023-09-19T03:18:23;12.02;;;2.40;;
20669;SDS011;10494;50.868;4.180;2023-09-19T03:20:54;11.63;;;2.65;;
20669;SDS011;10494;50.868;4.180;2023-09-19T03:23:21;14.32;;;2.60;;
20669;SDS011;10494;50.868;4.180;2023-09-19T03:25:47;10.48;;;2.55;;
20669;SDS011;10494;50.868;4.180;2023-09-19T03:28:13;14.77;;;2.97;;
20669;SDS011;10494;50.868;4.180;2023-09-19T03:30:40;17.17;;;3.03;;
20669;SDS011;10494;50.868;4.180;2023-09-19T03:33:07;10.32;;;2.92;;
20669;SDS011;10494;50.868;4.180;2023-09-19T03:35:33;16.17;;;2.97;;
20669;SDS011;10494;50.868;4.180;2023-09-19T03:37:59;20.15;;;2.92;;
20669;SDS011;10494;50.868;4.180;2023-09-19T03:40:25;17.38;;;2.97;;
20669;SDS011;10494;50.868;4.180;2023-09-19T03:42:51;17.58;;;3.45;;
20669;SDS011;10494;50.868;4.180;2023-09-19T03:45:16;13.75;;;3.10;;
20669;SDS011;10494;50.868;4.180;2023-09-19T03:47:43;14.10;;;2.97;;
20669;SDS011;10494;50.868;4.180;2023-09-19T03:50:12;15.07;;;3.55;;
20669;SDS011;10494;50.868;4.180;2023-09-19T03:52:40;11.05;;;2.38;;
20669;SDS011;10494;50.868;4.180;2023-09-19T03:55:06;15.27;;;3.13;;
20669;SDS011;10494;50.868;4.180;2023-09-19T03:57:31;13.38;;;3.13;;
20669;SDS011;10494;50.868;4.180;2023-09-19T03:59:57;11.35;;;2.65;;
20669;SDS011;10494;50.868;4.180;2023-09-19T04:02:23;14.73;;;3.33;;
20669;SDS011;10494;50.868;4.180;2023-09-19T04:04:50;15.65;;;3.08;;
20669;SDS011;10494;50.868;4.180;2023-09-19T04:07:16;19.33;;;3.20;;
20669;SDS011;10494;50.868;4.180;2023-09-19T04:09:42;15.93;;;3.50;;
20669;SDS011;10494;50.868;4.180;2023-09-19T04:12:07;9.45;;;2.30;;
20669;SDS011;10494;50.868;4.180;2023-09-19T04:14:36;18.30;;;2.70;;
20669;SDS011;10494;50.868;4.180;2023-09-19T04:17:02;14.25;;;2.85;;
20669;SDS011;10494;50.868;4.180;2023-09-19T04:19:28;12.45;;;2.95;;
20669;SDS011;10494;50.868;4.180;2023-09-19T04:21:54;13.73;;;3.38;;
20669;SDS011;10494;50.868;4.180;2023-09-19T04:24:19;22.52;;;4.10;;
20669;SDS011;10494;50.868;4.180;2023-09-19T04:26:45;14.38;;;2.58;;
20669;SDS011;10494;50.868;4.180;2023-09-19T04:29:11;14.43;;;3.20;;
20669;SDS011;10494;50.868;4.180;2023-09-19T04:31:39;16.08;;;3.08;;
20669;SDS011;10494;50.868;4.180;2023-09-19T04:34:05;20.83;;;3.97;;
20669;SDS011;10494;50.868;4.180;2023-09-19T04:36:31;16.38;;;2.95;;
20669;SDS011;10494;50.868;4.180;2023-09-19T04:38:57;16.73;;;3.38;;
20669;SDS011;10494;50.868;4.180;2023-09-19T04:41:22;13.98;;;2.33;;
20669;SDS011;10494;50.868;4.180;2023-09-19T04:43:49;17.23;;;3.35;;
20669;SDS011;10494;50.868;4.180;2023-09-19T04:46:15;13.38;;;2.67;;
20669;SDS011;10494;50.868;4.180;2023-09-19T04:48:42;12.77;;;2.90;;
20669;SDS011;10494;50.868;4.180;2023-09-19T04:51:08;18.98;;;3.15;;
20669;SDS011;10494;50.868;4.180;2023-09-19T04:53:34;12.50;;;3.10;;
20669;SDS011;10494;50.868;4.180;2023-09-19T04:55:59;17.92;;;3.22;;
20669;SDS011;10494;50.868;4.180;2023-09-19T04:58:25;21.85;;;3.30;;
20669;SDS011;10494;50.868;4.180;2023-09-19T05:00:50;16.48;;;3.03;;
20669;SDS011;10494;50.868;4.180;2023-09-19T05:03:17;15.40;;;3.08;;
20669;SDS011;10494;50.868;4.180;2023-09-19T05:05:42;10.40;;;2.80;;
20669;SDS011;10494;50.868;4.180;2023-09-19T05:08:08;11.27;;;2.70;;
20669;SDS011;10494;50.868;4.180;2023-09-19T05:10:35;14.27;;;2.83;;
20669;SDS011;10494;50.868;4.180;2023-09-19T05:13:04;13.45;;;2.35;;
20669;SDS011;10494;50.868;4.180;2023-09-19T05:15:30;18.08;;;3.25;;
20669;SDS011;10494;50.868;4.180;2023-09-19T05:17:56;13.32;;;2.63;;
20669;SDS011;10494;50.868;4.180;2023-09-19T05:20:22;11.90;;;2.53;;
20669;SDS011;10494;50.868;4.180;2023-09-19T05:23:03;15.55;;;3.50;;
20669;SDS011;10494;50.868;4.180;2023-09-19T05:25:36;14.05;;;2.97;;
20669;SDS011;10494;50.868;4.180;2023-09-19T05:28:04;14.07;;;2.65;;
20669;SDS011;10494;50.868;4.180;2023-09-19T05:30:34;15.07;;;3.20;;
20669;SDS011;10494;50.868;4.180;2023-09-19T05:33:08;16.00;;;2.60;;
20669;SDS011;10494;50.868;4.180;2023-09-19T05:35:34;11.30;;;2.50;;
20669;SDS011;10494;50.868;4.180;2023-09-19T05:38:04;11.75;;;2.40;;
20669;SDS011;10494;50.868;4.180;2023-09-19T05:40:33;11.85;;;2.78;;
20669;SDS011;10494;50.868;4.180;2023-09-19T05:43:00;14.73;;;2.83;;
20669;SDS011;10494;50.868;4.180;2023-09-19T05:45:26;13.75;;;2.63;;
20669;SDS011;10494;50.868;4.180;2023-09-19T05:47:52;12.57;;;2.95;;
20669;SDS011;10494;50.868;4.180;2023-09-19T05:50:21;14.20;;;2.80;;
20669;SDS011;10494;50.868;4.180;2023-09-19T05:52:53;10.10;;;2.22;;
20669;SDS011;10494;50.868;4.180;2023-09-19T05:55:21;15.82;;;2.83;;
20669;SDS011;10494;50.868;4.180;2023-09-19T05:57:53;9.60;;;2.67;;
20669;SDS011;10494;50.868;4.180;2023-09-19T06:00:22;12.65;;;2.30;;
20669;SDS011;10494;50.868;4.180;2023-09-19T06:02:52;16.02;;;2.97;;
20669;SDS011;10494;50.868;4.180;2023-09-19T06:05:24;16.90;;;3.08;;
20669;SDS011;10494;50.868;4.180;2023-09-19T06:07:55;11.85;;;2.08;;
20669;SDS011;10494;50.868;4.180;2023-09-19T06:10:25;9.98;;;2.40;;
20669;SDS011;10494;50.868;4.180;2023-09-19T06:12:52;16.25;;;3.00;;
20669;SDS011;10494;50.868;4.180;2023-09-19T06:15:20;13.35;;;3.20;;
20669;SDS011;10494;50.868;4.180;2023-09-19T06:17:50;15.82;;;2.42;;
20669;SDS011;10494;50.868;4.180;2023-09-19T06:20:24;12.85;;;2.70;;
20669;SDS011;10494;50.868;4.180;2023-09-19T06:22:52;14.57;;;3.05;;
20669;SDS011;10494;50.868;4.180;2023-09-19T06:25:19;11.25;;;2.97;;
20669;SDS011;10494;50.868;4.180;2023-09-19T06:27:48;16.63;;;2.63;;
20669;SDS011;10494;50.868;4.180;2023-09-19T06:30:17;15.73;;;2.80;;
20669;SDS011;10494;50.868;4.180;2023-09-19T06:32:43;14.65;;;3.28;;
20669;SDS011;10494;50.868;4.180;2023-09-19T06:35:09;19.05;;;2.53;;
20669;SDS011;10494;50.868;4.180;2023-09-19T06:37:39;13.48;;;2.70;;
20669;SDS011;10494;50.868;4.180;2023-09-19T06:40:12;14.40;;;2.75;;
20669;SDS011;10494;50.868;4.180;2023-09-19T06:43:12;18.92;;;3.22;;
20669;SDS011;10494;50.868;4.180;2023-09-19T06:45:31;16.55;;;2.90;;
20669;SDS011;10494;50.868;4.180;2023-09-19T06:47:57;9.23;;;2.42;;
20669;SDS011;10494;50.868;4.180;2023-09-19T06:50:25;15.48;;;3.55;;
20669;SDS011;10494;50.868;4.180;2023-09-19T06:52:53;9.95;;;2.72;;
20669;SDS011;10494;50.868;4.180;2023-09-19T06:55:20;9.85;;;2.40;;
20669;SDS011;10494;50.868;4.180;2023-09-19T06:57:50;15.95;;;3.42;;
20669;SDS011;10494;50.868;4.180;2023-09-19T07:00:16;16.05;;;2.67;;
20669;SDS011;10494;50.868;4.180;2023-09-19T07:05:36;20.67;;;3.15;;
20669;SDS011;10494;50.868;4.180;2023-09-19T07:08:07;15.48;;;2.40;;
20669;SDS011;10494;50.868;4.180;2023-09-19T07:10:38;15.82;;;3.30;;
20669;SDS011;10494;50.868;4.180;2023-09-19T07:13:06;14.75;;;2.70;;
20669;SDS011;10494;50.868;4.180;2023-09-19T07:15:36;9.43;;;2.50;;
20669;SDS011;10494;50.868;4.180;2023-09-19T07:18:04;12.48;;;2.65;;
20669;SDS011;10494;50.868;4.180;2023-09-19T07:20:31;11.50;;;2.60;;
20669;SDS011;10494;50.868;4.180;2023-09-19T07:22:58;14.10;;;2.20;;
20669;SDS011;10494;50.868;4.180;2023-09-19T07:25:27;14.05;;;2.53;;
20669;SDS011;10494;50.868;4.180;2023-09-19T07:27:54;15.75;;;2.47;;
20669;SDS011;10494;50.868;4.180;2023-09-19T07:30:21;14.27;;;2.63;;
20669;SDS011;10494;50.868;4.180;2023-09-19T07:32:47;16.40;;;2.58;;
20669;SDS011;10494;50.868;4.180;2023-09-19T07:35:13;9.45;;;2.40;;
20669;SDS011;10494;50.868;4.180;2023-09-19T07:37:40;13.32;;;2.60;;
20669;SDS011;10494;50.868;4.180;2023-09-19T07:40:06;11.48;;;2.47;;
20669;SDS011;10494;50.868;4.180;2023-09-19T07:42:35;11.48;;;2.33;;
20669;SDS011;10494;50.868;4.180;2023-09-19T07:45:04;9.73;;;2.28;;
20669;SDS011;10494;50.868;4.180;2023-09-19T07:47:30;12.77;;;3.13;;
20669;SDS011;10494;50.868;4.180;2023-09-19T07:49:57;10.27;;;2.45;;
20669;SDS011;10494;50.868;4.180;2023-09-19T07:52:23;13.30;;;2.20;;
20669;SDS011;10494;50.868;4.180;2023-09-19T07:54:49;13.10;;;2.65;;
20669;SDS011;10494;50.868;4.180;2023-09-19T07:57:15;15.45;;;2.88;;
20669;SDS011;10494;50.868;4.180;2023-09-19T07:59:41;10.15;;;2.42;;
20669;SDS011;10494;50.868;4.180;2023-09-19T08:02:07;9.40;;;2.60;;
20669;SDS011;10494;50.868;4.180;2023-09-19T08:04:34;11.02;;;2.10;;
20669;SDS011;10494;50.868;4.180;2023-09-19T08:07:00;16.15;;;3.88;;
20669;SDS011;10494;50.868;4.180;2023-09-19T08:09:29;10.60;;;2.30;;
20669;SDS011;10494;50.868;4.180;2023-09-19T08:11:58;9.10;;;2.45;;
20669;SDS011;10494;50.868;4.180;2023-09-19T08:14:27;8.95;;;2.75;;
20669;SDS011;10494;50.868;4.180;2023-09-19T08:16:56;9.55;;;2.75;;
20669;SDS011;10494;50.868;4.180;2023-09-19T08:19:23;10.55;;;2.60;;
20669;SDS011;10494;50.868;4.180;2023-09-19T08:21:56;13.35;;;2.97;;
20669;SDS011;10494;50.868;4.180;2023-09-19T08:24:24;14.05;;;2.88;;
20669;SDS011;10494;50.868;4.180;2023-09-19T08:26:53;15.63;;;2.67;;
20669;SDS011;10494;50.868;4.180;2023-09-19T08:29:25;11.52;;;2.75;;
20669;SDS011;10494;50.868;4.180;2023-09-19T08:31:58;13.55;;;2.92;;
20669;SDS011;10494;50.868;4.180;2023-09-19T08:34:24;13.45;;;3.30;;
20669;SDS011;10494;50.868;4.180;2023-09-19T08:36:51;11.38;;;2.47;;
20669;SDS011;10494;50.868;4.180;2023-09-19T08:39:21;12.88;;;2.78;;
20669;SDS011;10494;50.868;4.180;2023-09-19T08:41:57;10.32;;;2.35;;
20669;SDS011;10494;50.868;4.180;2023-09-19T08:44:24;15.15;;;2.58;;
20669;SDS011;10494;50.868;4.180;2023-09-19T08:46:50;17.08;;;2.63;;
20669;SDS011;10494;50.868;4.180;2023-09-19T08:49:24;10.43;;;2.60;;
20669;SDS011;10494;50.868;4.180;2023-09-19T08:52:04;13.05;;;2.80;;
20669;SDS011;10494;50.868;4.180;2023-09-19T08:54:38;13.75;;;2.33;;
20669;SDS011;10494;50.868;4.180;2023-09-19T08:57:07;10.20;;;2.50;;
20669;SDS011;10494;50.868;4.180;2023-09-19T08:59:37;8.63;;;2.17;;
20669;SDS011;10494;50.868;4.180;2023-09-19T09:02:12;8.23;;;2.38;;
20669;SDS011;10494;50.868;4.180;2023-09-19T09:04:43;13.82;;;3.00;;
20669;SDS011;10494;50.868;4.180;2023-09-19T09:07:13;9.10;;;2.67;;
20669;SDS011;10494;50.868;4.180;2023-09-19T09:09:39;13.55;;;2.88;;
20669;SDS011;10494;50.868;4.180;2023-09-19T09:12:12;11.68;;;2.45;;
20669;SDS011;10494;50.868;4.180;2023-09-19T09:14:39;14.25;;;2.55;;
20669;SDS011;10494;50.868;4.180;2023-09-19T09:17:06;8.57;;;2.35;;
20669;SDS011;10494;50.868;4.180;2023-09-19T09:19:32;9.05;;;2.65;;
20669;SDS011;10494;50.868;4.180;2023-09-19T09:22:08;8.80;;;2.40;;
20669;SDS011;10494;50.868;4.180;2023-09-19T09:24:34;11.98;;;2.15;;
20669;SDS011;10494;50.868;4.180;2023-09-19T09:27:03;8.00;;;2.38;;
20669;SDS011;10494;50.868;4.180;2023-09-19T09:29:41;12.15;;;2.13;;
20669;SDS011;10494;50.868;4.180;2023-09-19T09:32:17;8.30;;;2.30;;
20669;SDS011;10494;50.868;4.180;2023-09-19T09:34:57;8.93;;;2.10;;
20669;SDS011;10494;50.868;4.180;2023-09-19T09:37:24;8.85;;;1.88;;
20669;SDS011;10494;50.868;4.180;2023-09-19T09:39:56;9.60;;;2.08;;
20669;SDS011;10494;50.868;4.180;2023-09-19T09:42:44;11.13;;;2.35;;
20669;SDS011;10494;50.868;4.180;2023-09-19T09:45:21;8.50;;;2.45;;
20669;SDS011;10494;50.868;4.180;2023-09-19T09:48:13;7.47;;;2.00;;
20669;SDS011;10494;50.868;4.180;2023-09-19T09:50:45;7.05;;;2.10;;
20669;SDS011;10494;50.868;4.180;2023-09-19T09:53:22;11.15;;;2.38;;
20669;SDS011;10494;50.868;4.180;2023-09-19T09:56:04;10.93;;;2.25;;
20669;SDS011;10494;50.868;4.180;2023-09-19T09:58:34;8.38;;;2.00;;
20669;SDS011;10494;50.868;4.180;2023-09-19T10:01:14;8.52;;;2.20;;
20669;SDS011;10494;50.868;4.180;2023-09-19T10:03:41;11.35;;;2.33;;
20669;SDS011;10494;50.868;4.180;2023-09-19T10:06:15;10.88;;;2.78;;
20669;SDS011;10494;50.868;4.180;2023-09-19T10:09:02;6.63;;;1.95;;
20669;SDS011;10494;50.868;4.180;2023-09-19T10:12:02;6.25;;;2.03;;
20669;SDS011;10494;50.868;4.180;2023-09-19T10:14:30;10.63;;;2.67;;
20669;SDS011;10494;50.868;4.180;2023-09-19T10:17:03;9.57;;;2.35;;
20669;SDS011;10494;50.868;4.180;2023-09-19T10:19:34;9.15;;;2.33;;
20669;SDS011;10494;50.868;4.180;2023-09-19T10:22:02;7.10;;;1.73;;
20669;SDS011;10494;50.868;4.180;2023-09-19T10:24:33;5.88;;;2.03;;
20669;SDS011;10494;50.868;4.180;2023-09-19T10:27:03;13.40;;;2.47;;
20669;SDS011;10494;50.868;4.180;2023-09-19T10:29:33;13.68;;;2.00;;
20669;SDS011;10494;50.868;4.180;2023-09-19T10:32:01;8.30;;;2.50;;
20669;SDS011;10494;50.868;4.180;2023-09-19T10:34:30;11.18;;;2.45;;
20669;SDS011;10494;50.868;4.180;2023-09-19T10:37:07;10.00;;;1.75;;
20669;SDS011;10494;50.868;4.180;2023-09-19T10:39:36;4.55;;;1.40;;
20669;SDS011;10494;50.868;4.180;2023-09-19T10:42:05;12.98;;;2.40;;
20669;SDS011;10494;50.868;4.180;2023-09-19T10:44:33;6.88;;;2.05;;
20669;SDS011;10494;50.868;4.180;2023-09-19T10:47:07;8.30;;;2.03;;
20669;SDS011;10494;50.868;4.180;2023-09-19T10:49:33;9.90;;;1.50;;
20669;SDS011;10494;50.868;4.180;2023-09-19T10:51:59;10.20;;;1.95;;
20669;SDS011;10494;50.868;4.180;2023-09-19T10:54:29;6.75;;;1.92;;
20669;SDS011;10494;50.868;4.180;2023-09-19T10:56:59;15.93;;;1.90;;
20669;SDS011;10494;50.868;4.180;2023-09-19T10:59:25;5.70;;;1.60;;
20669;SDS011;10494;50.868;4.180;2023-09-19T11:02:17;8.88;;;1.80;;
20669;SDS011;10494;50.868;4.180;2023-09-19T11:04:43;6.35;;;1.23;;
20669;SDS011;10494;50.868;4.180;2023-09-19T11:07:13;9.15;;;1.75;;
20669;SDS011;10494;50.868;4.180;2023-09-19T11:14:56;9.80;;;1.52;;
20669;SDS011;10494;50.868;4.180;2023-09-19T11:30:31;5.68;;;1.58;;
20669;SDS011;10494;50.868;4.180;2023-09-19T11:36:09;4.75;;;1.30;;
20669;SDS011;10494;50.868;4.180;2023-09-19T11:43:46;3.25;;;1.00;;
20669;SDS011;10494;50.868;4.180;2023-09-19T11:46:23;6.05;;;1.20;;
20669;SDS011;10494;50.868;4.180;2023-09-19T11:48:52;9.23;;;1.40;;
20669;SDS011;10494;50.868;4.180;2023-09-19T11:51:24;2.42;;;0.93;;
20669;SDS011;10494;50.868;4.180;2023-09-19T11:53:57;10.05;;;1.45;;
20669;SDS011;10494;50.868;4.180;2023-09-19T11:56:26;5.00;;;1.33;;
20669;SDS011;10494;50.868;4.180;2023-09-19T11:58:56;8.10;;;1.52;;
20669;SDS011;10494;50.868;4.180;2023-09-19T12:04:00;5.28;;;1.23;;
20669;SDS011;10494;50.868;4.180;2023-09-19T12:06:27;8.18;;;1.85;;
20669;SDS011;10494;50.868;4.180;2023-09-19T12:08:54;4.50;;;1.60;;
20669;SDS011;10494;50.868;4.180;2023-09-19T12:11:22;13.02;;;1.70;;
20669;SDS011;10494;50.868;4.180;2023-09-19T12:13:50;8.13;;;1.70;;
20669;SDS011;10494;50.868;4.180;2023-09-19T12:16:16;11.48;;;2.05;;
20669;SDS011;10494;50.868;4.180;2023-09-19T12:18:46;8.93;;;2.08;;
20669;SDS011;10494;50.868;4.180;2023-09-19T12:21:22;7.97;;;1.92;;
20669;SDS011;10494;50.868;4.180;2023-09-19T12:26:41;11.88;;;1.85;;
20669;SDS011;10494;50.868;4.180;2023-09-19T12:29:15;8.63;;;1.63;;
20669;SDS011;10494;50.868;4.180;2023-09-19T12:34:23;4.40;;;1.60;;
20669;SDS011;10494;50.868;4.180;2023-09-19T12:37:03;5.25;;;1.30;;
20669;SDS011;10494;50.868;4.180;2023-09-19T12:39:36;3.25;;;1.10;;
20669;SDS011;10494;50.868;4.180;2023-09-19T12:42:02;5.15;;;1.23;;
20669;SDS011;10494;50.868;4.180;2023-09-19T12:44:29;6.88;;;1.55;;
20669;SDS011;10494;50.868;4.180;2023-09-19T12:46:55;6.80;;;1.33;;
20669;SDS011;10494;50.868;4.180;2023-09-19T12:49:24;4.78;;;1.13;;
20669;SDS011;10494;50.868;4.180;2023-09-19T12:51:49;4.70;;;1.42;;
20669;SDS011;10494;50.868;4.180;2023-09-19T12:54:20;10.40;;;1.30;;
20669;SDS011;10494;50.868;4.180;2023-09-19T12:56:47;6.38;;;1.00;;
20669;SDS011;10494;50.868;4.180;2023-09-19T12:59:14;7.18;;;1.33;;
20669;SDS011;10494;50.868;4.180;2023-09-19T13:01:40;6.85;;;1.35;;
20669;SDS011;10494;50.868;4.180;2023-09-19T13:04:12;6.35;;;1.75;;
20669;SDS011;10494;50.868;4.180;2023-09-19T13:06:40;7.97;;;1.42;;
20669;SDS011;10494;50.868;4.180;2023-09-19T13:09:09;3.53;;;1.17;;
20669;SDS011;10494;50.868;4.180;2023-09-19T13:11:36;4.18;;;1.33;;
20669;SDS011;10494;50.868;4.180;2023-09-19T13:14:16;11.80;;;1.50;;
20669;SDS011;10494;50.868;4.180;2023-09-19T13:17:04;6.53;;;1.73;;
20669;SDS011;10494;50.868;4.180;2023-09-19T13:19:44;3.30;;;1.02;;
20669;SDS011;10494;50.868;4.180;2023-09-19T13:22:37;5.85;;;1.13;;
20669;SDS011;10494;50.868;4.180;2023-09-19T13:25:14;2.85;;;1.10;;
20669;SDS011;10494;50.868;4.180;2023-09-19T13:27:44;8.00;;;1.48;;
20669;SDS011;10494;50.868;4.180;2023-09-19T13:30:16;7.90;;;1.30;;
20669;SDS011;10494;50.868;4.180;2023-09-19T13:32:43;6.00;;;1.45;;
20669;SDS011;10494;50.868;4.180;2023-09-19T13:35:09;4.53;;;1.20;;
20669;SDS011;10494;50.868;4.180;2023-09-19T13:37:37;7.07;;;1.70;;
20669;SDS011;10494;50.868;4.180;2023-09-19T13:40:07;3.92;;;1.20;;
20669;SDS011;10494;50.868;4.180;2023-09-19T13:42:37;6.95;;;1.42;;
20669;SDS011;10494;50.868;4.180;2023-09-19T13:45:03;4.22;;;1.25;;
20669;SDS011;10494;50.868;4.180;2023-09-19T13:47:30;5.35;;;1.60;;
20669;SDS011;10494;50.868;4.180;2023-09-19T13:49:55;5.63;;;1.13;;
20669;SDS011;10494;50.868;4.180;2023-09-19T13:52:22;6.35;;;1.50;;
20669;SDS011;10494;50.868;4.180;2023-09-19T13:54:48;3.95;;;1.35;;
20669;SDS011;10494;50.868;4.180;2023-09-19T13:57:18;5.05;;;1.50;;
20669;SDS011;10494;50.868;4.180;2023-09-19T13:59:43;7.40;;;1.65;;
20669;SDS011;10494;50.868;4.180;2023-09-19T14:02:09;3.38;;;1.23;;
20669;SDS011;10494;50.868;4.180;2023-09-19T14:04:35;6.93;;;2.08;;
20669;SDS011;10494;50.868;4.180;2023-09-19T14:07:03;4.03;;;1.40;;
20669;SDS011;10494;50.868;4.180;2023-09-19T14:09:29;5.20;;;1.60;;
20669;SDS011;10494;50.868;4.180;2023-09-19T14:11:55;7.20;;;1.70;;
20669;SDS011;10494;50.868;4.180;2023-09-19T14:14:22;4.30;;;1.42;;
20669;SDS011;10494;50.868;4.180;2023-09-19T14:16:47;4.65;;;1.58;;
20669;SDS011;10494;50.868;4.180;2023-09-19T14:19:13;7.63;;;1.55;;
20669;SDS011;10494;50.868;4.180;2023-09-19T14:21:41;5.75;;;1.67;;
20669;SDS011;10494;50.868;4.180;2023-09-19T14:24:07;8.70;;;1.95;;
20669;SDS011;10494;50.868;4.180;2023-09-19T14:26:38;6.97;;;2.10;;
20669;SDS011;10494;50.868;4.180;2023-09-19T14:29:04;10.85;;;1.80;;
20669;SDS011;10494;50.868;4.180;2023-09-19T14:31:32;9.15;;;1.65;;
20669;SDS011;10494;50.868;4.180;2023-09-19T14:33:58;11.23;;;1.95;;
20669;SDS011;10494;50.868;4.180;2023-09-19T14:36:24;8.27;;;1.85;;
20669;SDS011;10494;50.868;4.180;2023-09-19T14:38:55;4.57;;;1.27;;
20669;SDS011;10494;50.868;4.180;2023-09-19T14:41:21;5.32;;;2.20;;
20669;SDS011;10494;50.868;4.180;2023-09-19T14:43:48;8.75;;;1.75;;
20669;SDS011;10494;50.868;4.180;2023-09-19T14:46:14;4.10;;;1.30;;
20669;SDS011;10494;50.868;4.180;2023-09-19T14:48:41;9.35;;;1.98;;
20669;SDS011;10494;50.868;4.180;2023-09-19T14:51:07;13.23;;;2.50;;
20669;SDS011;10494;50.868;4.180;2023-09-19T14:53:36;7.70;;;1.90;;
20669;SDS011;10494;50.868;4.180;2023-09-19T14:56:07;4.05;;;1.30;;
20669;SDS011;10494;50.868;4.180;2023-09-19T14:58:34;9.63;;;1.48;;
20669;SDS011;10494;50.868;4.180;2023-09-19T15:01:10;11.45;;;1.85;;
20669;SDS011;10494;50.868;4.180;2023-09-19T15:03:37;13.73;;;1.90;;
20669;SDS011;10494;50.868;4.180;2023-09-19T15:06:07;10.70;;;1.90;;
20669;SDS011;10494;50.868;4.180;2023-09-19T15:08:40;5.90;;;1.90;;
20669;SDS011;10494;50.868;4.180;2023-09-19T15:11:08;7.72;;;1.92;;
20669;SDS011;10494;50.868;4.180;2023-09-19T15:13:35;6.90;;;1.88;;
20669;SDS011;10494;50.868;4.180;2023-09-19T15:16:02;5.70;;;1.80;;
20669;SDS011;10494;50.868;4.180;2023-09-19T15:18:29;7.00;;;2.00;;
20669;SDS011;10494;50.868;4.180;2023-09-19T15:20:55;6.20;;;1.70;;
20669;SDS011;10494;50.868;4.180;2023-09-19T15:23:21;4.63;;;1.38;;
20669;SDS011;10494;50.868;4.180;2023-09-19T15:25:48;5.70;;;2.00;;
20669;SDS011;10494;50.868;4.180;2023-09-19T15:28:14;13.07;;;2.72;;
20669;SDS011;10494;50.868;4.180;2023-09-19T15:30:40;5.97;;;1.88;;
20669;SDS011;10494;50.868;4.180;2023-09-19T15:33:05;6.30;;;1.85;;
20669;SDS011;10494;50.868;4.180;2023-09-19T15:35:31;5.88;;;1.75;;
20669;SDS011;10494;50.868;4.180;2023-09-19T15:37:57;10.63;;;2.08;;
20669;SDS011;10494;50.868;4.180;2023-09-19T15:40:24;8.50;;;1.77;;
20669;SDS011;10494;50.868;4.180;2023-09-19T15:42:50;5.57;;;1.92;;